Accueil
METAR-TAF:

METAR-TAF

Aéroports :

Wiarton, Ontario, Canada

latitude: 44-45N, longitude: 081-06W, altitude: 222 m

Observation

Le bulletin a été fait il y a 46 minutes, à 09:00 UTC
Vent 2 kt de sud
Température 13°C
Humidité 100%
Pression 1011 hPa
Visibilité: 16.1 km
Ciel couvert à une hauteur de 5000 ft
pluie faible

METAR: CYVV 210900Z 17002KT 10SM -RA OVC050 13/13 A2984 RMK SC8 SLP109

Heure: 05:46 (09:46 UTC)

Prévision

Le bulletin a été fait il y a 14 heures et 8 minutes, à 19:38 UTC
Prévision valable du 20 à 20 UTC au 20 à 23 UTC
Vent 8 kt de ouest/sud-ouest
Visibilité: 10 km
Quelques nuages à une hauteur de 1200 ft
Nuages épars à une hauteur de 5000 ft

TAF: CYVV 201938Z 2020/2023 24008KT P6SM FEW012 SCT050 RMK NXT FCST WILL BE ISSUED AT 211045Z

Observations et prévisions météorologiques de plus de 4000 aéroports (messages METAR et TAF).

Les stations disponibles sont représentées par des disques jaunes et rouges sur la carte.

Passer la souris dessus pour voir le nom de la station.

Cliquer dessus pour voir les observations et prévisions météorologiques.

Pour changer de carte: cliquez sur les boutons verts avec une croix noire pour zoomer, sur le bouton vert avec un tiret pour effectuer un zoom arrière, ou sur les flèches vertes pour les cartes adjacentes.


METAR-TAF: